Time;durP1;ratioP1;P1;durP2;ratioP2;P2;SDS_P1;SDS_P2;PMS_P1;PMS_P2;Temp;Humidity;BMP_temperature;BMP_pressure;BME280_temperature;BME280_humidity;BME280_pressure;Samples;Min_cycle;Max_cycle;Signal;HPM_P1;HPM_P2
2022/07/26 00:02:19;;;;;;;4.77;4.37;;;19.90;99.90;;;;;;5049739;28;20194;-65
2022/07/26 00:04:45;;;;;;;5.03;3.97;;;19.90;99.90;;;;;;5049537;28;20186;-64
2022/07/26 00:07:10;;;;;;;4.40;4.20;;;19.80;99.90;;;;;;5051294;28;20174;-64
2022/07/26 00:09:36;;;;;;;4.27;3.87;;;19.80;99.90;;;;;;5049595;28;20213;-65
2022/07/26 00:12:02;;;;;;;4.53;4.13;;;19.70;99.90;;;;;;5051140;28;20580;-64
2022/07/26 00:14:27;;;;;;;5.50;3.53;;;19.70;99.90;;;;;;5049577;28;20179;-64
2022/07/26 00:16:53;;;;;;;4.30;3.97;;;19.60;99.90;;;;;;5051801;28;20183;-65
2022/07/26 00:19:18;;;;;;;4.50;4.20;;;19.50;99.90;;;;;;5055116;28;20649;-64
2022/07/26 00:21:44;;;;;;;8.07;4.30;;;19.40;99.90;;;;;;5054847;28;20660;-64
2022/07/26 00:24:10;;;;;;;4.00;3.70;;;19.30;99.90;;;;;;5054827;28;20178;-64
2022/07/26 00:26:35;;;;;;;4.37;3.93;;;19.30;99.90;;;;;;5055005;28;20312;-64
2022/07/26 00:29:02;;;;;;;4.10;3.70;;;19.20;99.90;;;;;;5055062;28;20210;-64
2022/07/26 00:31:28;;;;;;;5.20;3.70;;;19.10;99.90;;;;;;5054783;28;20209;-65
2022/07/26 00:33:54;;;;;;;4.30;4.00;;;19.00;99.90;;;;;;5054449;28;20174;-64
2022/07/26 00:36:20;;;;;;;4.47;4.07;;;18.90;99.90;;;;;;5054935;28;20182;-64
2022/07/26 00:38:45;;;;;;;6.67;4.53;;;18.90;99.90;;;;;;5054715;28;20182;-63
2022/07/26 00:41:11;;;;;;;5.10;4.00;;;18.80;99.90;;;;;;5054836;28;20258;-64
2022/07/26 00:43:37;;;;;;;4.80;4.37;;;18.70;99.90;;;;;;5054187;28;20564;-64
2022/07/26 00:46:02;;;;;;;4.60;4.30;;;18.60;99.90;;;;;;5053608;28;20175;-65
2022/07/26 00:48:28;;;;;;;5.37;4.70;;;18.60;99.90;;;;;;5054463;28;20202;-64
2022/07/26 00:50:54;;;;;;;4.17;3.97;;;18.60;99.90;;;;;;5054891;28;20628;-64
2022/07/26 00:53:21;;;;;;;4.43;4.23;;;18.60;99.90;;;;;;5054204;28;20191;-65
2022/07/26 00:55:48;;;;;;;5.33;5.07;;;18.50;99.90;;;;;;5054478;28;20194;-64
2022/07/26 00:58:14;;;;;;;4.90;4.50;;;18.40;99.90;;;;;;5052966;28;20238;-64
2022/07/26 01:00:40;;;;;;;4.30;4.10;;;18.40;99.90;;;;;;5054514;28;20563;-64
2022/07/26 01:03:06;;;;;;;5.03;4.70;;;18.40;99.90;;;;;;5054132;28;20209;-64
2022/07/26 01:05:32;;;;;;;4.97;4.47;;;18.30;99.90;;;;;;5054110;28;20171;-65
2022/07/26 01:07:57;;;;;;;7.20;4.00;;;18.30;99.90;;;;;;5052395;28;20206;-65
2022/07/26 01:10:23;;;;;;;4.57;4.20;;;18.30;99.90;;;;;;5054193;28;20621;-65
2022/07/26 01:12:49;;;;;;;5.47;4.43;;;18.20;99.90;;;;;;5052618;28;20201;-64
2022/07/26 01:15:16;;;;;;;4.63;4.23;;;18.20;99.90;;;;;;5053982;28;20167;-65
2022/07/26 01:17:43;;;;;;;6.20;4.30;;;18.10;99.90;;;;;;5053978;28;20254;-65
2022/07/26 01:20:10;;;;;;;4.80;4.37;;;18.10;99.90;;;;;;5054162;28;20167;-65
2022/07/26 01:22:36;;;;;;;4.40;4.00;;;18.00;99.90;;;;;;5051628;28;20253;-64
2022/07/26 01:25:03;;;;;;;7.03;4.67;;;18.00;99.90;;;;;;5053981;28;20175;-65
2022/07/26 01:27:28;;;;;;;4.50;3.93;;;18.00;99.90;;;;;;5053535;28;20293;-65
2022/07/26 01:29:54;;;;;;;6.50;3.97;;;17.90;99.90;;;;;;5053726;28;20305;-65
2022/07/26 01:32:20;;;;;;;6.43;5.00;;;17.90;99.90;;;;;;5053721;28;20205;-64
2022/07/26 01:34:45;;;;;;;5.60;5.23;;;17.90;99.90;;;;;;5053687;28;20167;-64
2022/07/26 01:37:11;;;;;;;5.70;5.00;;;17.80;99.90;;;;;;5053694;28;20175;-64
2022/07/26 01:39:37;;;;;;;7.77;4.63;;;17.80;99.90;;;;;;5053846;28;20209;-65
2022/07/26 01:42:03;;;;;;;4.90;4.50;;;17.80;99.90;;;;;;5053465;28;20214;-64
2022/07/26 01:44:28;;;;;;;5.43;4.80;;;17.80;99.90;;;;;;5053392;28;20170;-65
2022/07/26 01:46:54;;;;;;;4.60;4.20;;;17.70;99.90;;;;;;5053419;28;20225;-64
2022/07/26 01:49:20;;;;;;;5.10;4.60;;;17.70;99.90;;;;;;5052201;28;20202;-64
2022/07/26 01:51:45;;;;;;;5.53;5.00;;;17.70;99.90;;;;;;5053283;28;20626;-64
2022/07/26 01:54:11;;;;;;;6.40;5.40;;;17.70;99.90;;;;;;5053004;28;20178;-64
2022/07/26 01:56:36;;;;;;;6.97;5.30;;;17.70;99.90;;;;;;5053441;28;20202;-64
2022/07/26 01:59:02;;;;;;;4.70;4.30;;;17.70;99.90;;;;;;5053151;28;20258;-64
2022/07/26 02:01:28;;;;;;;5.97;4.83;;;17.70;99.90;;;;;;5052028;28;20670;-64
2022/07/26 02:03:54;;;;;;;5.10;4.80;;;17.70;99.90;;;;;;5052699;28;20194;-65
2022/07/26 02:06:19;;;;;;;6.83;4.73;;;17.70;99.90;;;;;;5051985;28;20261;-64
2022/07/26 02:08:45;;;;;;;5.97;4.57;;;17.70;99.90;;;;;;5051880;28;20636;-64
2022/07/26 02:11:11;;;;;;;5.80;5.20;;;17.60;99.90;;;;;;5053008;28;20179;-64
2022/07/26 02:13:41;;;;;;;6.23;4.93;;;17.60;99.90;;;;;;5052905;28;20174;-65
2022/07/26 02:16:12;;;;;;;5.67;5.17;;;17.70;99.90;;;;;;5052761;28;20225;-65
2022/07/26 02:18:39;;;;;;;5.67;5.23;;;17.70;99.90;;;;;;5053097;28;20178;-65
2022/07/26 02:21:06;;;;;;;4.73;4.33;;;17.70;99.90;;;;;;5052801;28;20197;-64
2022/07/26 02:23:32;;;;;;;9.17;4.80;;;17.70;99.90;;;;;;5052614;28;20210;-65
2022/07/26 02:25:58;;;;;;;6.20;4.80;;;17.70;99.90;;;;;;5052702;28;20269;-64
2022/07/26 02:28:24;;;;;;;6.83;4.70;;;17.70;99.90;;;;;;5051605;28;20318;-64
2022/07/26 02:30:50;;;;;;;5.97;5.47;;;17.70;99.90;;;;;;5052512;28;20254;-65
2022/07/26 02:33:16;;;;;;;5.33;4.33;;;17.70;99.90;;;;;;5052553;28;20214;-65
2022/07/26 02:35:42;;;;;;;6.27;4.87;;;17.70;99.90;;;;;;5052421;28;20213;-65
2022/07/26 02:38:10;;;;;;;6.30;4.67;;;17.60;99.90;;;;;;5052591;28;20186;-64
2022/07/26 02:40:37;;;;;;;6.83;4.83;;;17.50;99.90;;;;;;5052230;28;20198;-64
2022/07/26 02:43:05;;;;;;;5.33;4.50;;;17.50;99.90;;;;;;5052263;28;20221;-64
2022/07/26 02:45:30;;;;;;;5.97;4.53;;;17.40;99.90;;;;;;5052484;28;20171;-64
2022/07/26 02:47:56;;;;;;;13.97;4.87;;;17.40;99.90;;;;;;5052038;28;20225;-64
2022/07/26 02:50:25;;;;;;;5.33;4.50;;;17.40;99.90;;;;;;5052510;28;20170;-64
2022/07/26 02:52:51;;;;;;;6.93;5.47;;;17.40;99.90;;;;;;5051941;28;20222;-65
2022/07/26 02:55:20;;;;;;;5.67;5.23;;;17.40;99.90;;;;;;5052006;28;20576;-64
2022/07/26 02:57:46;;;;;;;7.83;5.33;;;17.40;99.90;;;;;;5051961;28;20652;-64
2022/07/26 03:00:17;;;;;;;6.10;4.60;;;17.30;99.90;;;;;;5050981;28;20588;-64
2022/07/26 03:02:43;;;;;;;8.63;5.30;;;17.30;99.90;;;;;;5051973;28;20584;-64
2022/07/26 03:05:09;;;;;;;5.43;4.93;;;17.30;99.90;;;;;;5052072;28;20177;-65
2022/07/26 03:07:35;;;;;;;5.17;4.77;;;17.20;99.90;;;;;;5051791;28;20256;-65
2022/07/26 03:10:01;;;;;;;8.57;5.30;;;17.20;99.90;;;;;;5051960;28;20580;-64
2022/07/26 03:12:26;;;;;;;5.67;5.03;;;17.20;99.90;;;;;;5052019;28;20213;-65
2022/07/26 03:14:52;;;;;;;8.20;5.23;;;17.20;99.90;;;;;;5051301;28;20542;-64
2022/07/26 03:17:18;;;;;;;6.50;4.70;;;17.20;99.90;;;;;;5050699;28;20205;-64
2022/07/26 03:19:44;;;;;;;7.00;5.13;;;17.20;99.90;;;;;;5050349;28;20179;-65
2022/07/26 03:22:10;;;;;;;11.10;5.37;;;17.20;99.90;;;;;;5052000;28;20768;-64
2022/07/26 03:24:35;;;;;;;7.00;5.27;;;17.20;99.90;;;;;;5051364;28;20179;-64
2022/07/26 03:27:01;;;;;;;6.03;5.53;;;17.30;99.90;;;;;;5051867;28;20181;-65
2022/07/26 03:29:27;;;;;;;9.73;6.67;;;17.30;99.90;;;;;;5051108;28;20199;-65
2022/07/26 03:31:52;;;;;;;6.00;5.50;;;17.30;99.90;;;;;;5051621;28;20562;-65
2022/07/26 03:34:19;;;;;;;6.70;5.43;;;17.40;99.90;;;;;;5051097;28;20178;-65
2022/07/26 03:36:45;;;;;;;5.43;4.83;;;17.50;99.90;;;;;;5050552;28;20186;-64
2022/07/26 03:39:10;;;;;;;9.27;5.97;;;17.60;99.90;;;;;;5051423;28;20179;-64
2022/07/26 03:41:36;;;;;;;6.57;5.77;;;17.60;99.90;;;;;;5051160;28;20211;-65
2022/07/26 03:44:02;;;;;;;7.63;5.30;;;17.70;99.90;;;;;;5051084;28;20270;-65
2022/07/26 03:46:28;;;;;;;12.40;5.47;;;17.70;99.90;;;;;;5049996;28;20228;-64
2022/07/26 03:48:54;;;;;;;7.83;5.13;;;17.80;99.90;;;;;;5051172;28;20687;-65
2022/07/26 03:51:19;;;;;;;6.67;4.90;;;17.80;99.90;;;;;;5050339;28;20218;-65
2022/07/26 03:53:46;;;;;;;8.83;5.50;;;17.90;99.90;;;;;;5051071;28;20178;-64
2022/07/26 03:58:58;;;;;;;8.03;5.80;;;17.90;99.90;;;;;;5051858;28;20232;-64
2022/07/26 04:01:23;;;;;;;8.90;6.90;;;17.80;99.90;;;;;;5049560;28;20542;-64
2022/07/26 04:03:49;;;;;;;9.77;8.83;;;17.90;99.90;;;;;;5050954;28;20166;-65
2022/07/26 04:06:15;;;;;;;9.97;6.70;;;17.90;99.90;;;;;;5051155;28;20217;-64
2022/07/26 04:08:40;;;;;;;8.13;5.03;;;17.90;99.90;;;;;;5045342;28;20210;-64
2022/07/26 04:11:06;;;;;;;6.00;5.40;;;18.00;99.90;;;;;;5031493;28;20242;-65
2022/07/26 04:13:32;;;;;;;13.60;5.47;;;18.10;99.90;;;;;;5049590;28;20298;-64
2022/07/26 04:15:57;;;;;;;6.93;4.97;;;18.10;99.90;;;;;;5050957;28;20166;-64
2022/07/26 04:18:23;;;;;;;10.83;5.37;;;18.20;99.90;;;;;;5050991;28;20213;-65
2022/07/26 04:20:48;;;;;;;9.33;5.40;;;18.20;99.90;;;;;;5051358;28;20211;-64
2022/07/26 04:23:14;;;;;;;6.57;5.43;;;18.20;99.90;;;;;;5050899;28;20203;-65
2022/07/26 04:25:40;;;;;;;6.87;5.50;;;18.30;99.90;;;;;;5049447;28;20175;-66
2022/07/26 04:28:05;;;;;;;12.37;4.90;;;18.30;99.90;;;;;;5050878;28;20289;-64
2022/07/26 04:30:31;;;;;;;8.93;5.70;;;18.30;99.90;;;;;;5051394;28;20175;-66
2022/07/26 04:32:57;;;;;;;7.10;6.00;;;18.40;99.90;;;;;;5050870;28;20199;-65
2022/07/26 04:35:23;;;;;;;8.43;5.53;;;18.40;99.90;;;;;;5050551;28;20592;-65
2022/07/26 04:37:48;;;;;;;7.70;5.30;;;18.40;99.90;;;;;;5050736;28;20648;-66
2022/07/26 04:40:19;;;;;;;5.93;5.23;;;18.40;99.90;;;;;;5050619;28;20175;-65
2022/07/26 04:42:46;;;;;;;11.17;5.87;;;18.40;99.90;;;;;;5050348;28;20207;-65
2022/07/26 04:45:12;;;;;;;8.90;6.37;;;18.40;99.90;;;;;;5049521;28;20292;-65
2022/07/26 04:47:42;;;;;;;8.60;5.77;;;18.50;99.90;;;;;;5050701;28;21927;-64
2022/07/26 04:50:09;;;;;;;12.17;5.53;;;18.50;99.90;;;;;;5049635;28;20244;-65
2022/07/26 04:52:35;;;;;;;9.60;5.93;;;18.50;99.90;;;;;;5050466;28;20244;-64
2022/07/26 04:55:00;;;;;;;10.33;6.27;;;18.40;99.90;;;;;;5050613;28;20179;-65
2022/07/26 04:57:26;;;;;;;11.17;5.43;;;18.50;99.90;;;;;;5050656;28;20241;-64
2022/07/26 04:59:52;;;;;;;12.03;6.30;;;18.40;99.90;;;;;;5050629;28;20182;-64
2022/07/26 05:02:17;;;;;;;9.10;5.60;;;18.50;99.90;;;;;;5050355;28;20244;-64
2022/07/26 05:04:43;;;;;;;8.50;5.60;;;18.50;99.90;;;;;;5054314;28;20281;-65
2022/07/26 05:07:09;;;;;;;9.07;5.30;;;18.60;99.90;;;;;;5054492;28;20163;-65
2022/07/26 05:09:34;;;;;;;10.03;5.57;;;18.60;99.90;;;;;;5054065;28;20213;-64
2022/07/26 05:12:00;;;;;;;6.30;5.70;;;18.60;99.90;;;;;;5052907;28;20195;-65
2022/07/26 05:14:26;;;;;;;8.07;5.23;;;18.60;99.90;;;;;;5053607;28;20206;-65
2022/07/26 05:16:51;;;;;;;8.00;5.90;;;18.60;99.90;;;;;;5053234;28;20216;-65
2022/07/26 05:19:17;;;;;;;11.40;5.50;;;18.60;99.90;;;;;;5052599;28;20546;-64
2022/07/26 05:21:42;;;;;;;7.83;5.47;;;18.60;99.90;;;;;;5054090;28;20229;-65
2022/07/26 05:24:08;;;;;;;10.47;5.40;;;18.60;99.90;;;;;;5053371;28;20183;-65
2022/07/26 05:26:34;;;;;;;5.93;5.40;;;18.70;99.90;;;;;;5052728;28;20175;-65
2022/07/26 05:28:59;;;;;;;13.37;5.77;;;18.70;99.90;;;;;;5053650;28;20198;-64
2022/07/26 05:31:25;;;;;;;6.77;5.73;;;18.80;99.90;;;;;;5052496;28;20198;-64
2022/07/26 05:33:51;;;;;;;10.23;5.97;;;18.80;99.90;;;;;;5053932;28;20163;-64
2022/07/26 05:36:16;;;;;;;6.37;5.00;;;18.90;99.90;;;;;;5052364;28;20171;-64
2022/07/26 05:38:42;;;;;;;8.30;5.43;;;19.00;99.90;;;;;;5054095;28;20199;-64
2022/07/26 05:41:08;;;;;;;10.00;4.93;;;19.10;99.90;;;;;;5053737;28;20656;-64
2022/07/26 05:43:33;;;;;;;10.83;5.20;;;19.10;99.90;;;;;;5053470;28;20256;-64
2022/07/26 05:45:59;;;;;;;11.03;5.83;;;19.10;99.90;;;;;;5052176;28;20171;-64
2022/07/26 05:48:25;;;;;;;11.73;4.83;;;19.10;99.90;;;;;;5053567;28;20611;-64
2022/07/26 05:50:50;;;;;;;7.10;5.77;;;19.20;99.90;;;;;;5053394;28;20171;-65
2022/07/26 05:53:16;;;;;;;7.10;4.93;;;19.20;99.90;;;;;;5052223;28;20198;-65
2022/07/26 05:55:42;;;;;;;7.97;5.60;;;19.20;99.90;;;;;;5053159;28;20171;-65
2022/07/26 05:58:07;;;;;;;10.53;5.73;;;19.20;99.90;;;;;;5051443;28;20269;-64
2022/07/26 06:00:33;;;;;;;7.90;5.20;;;19.30;99.90;;;;;;5053057;28;20182;-64
2022/07/26 06:03:20;;;;;;;7.73;5.27;;;19.20;99.90;;;;;;5051717;28;20234;-64
2022/07/26 06:05:44;;;;;;;9.23;5.57;;;19.20;99.90;;;;;;5053003;28;20174;-65
2022/07/26 06:08:10;;;;;;;9.53;5.90;;;19.20;99.90;;;;;;5051540;28;20214;-65
2022/07/26 06:10:36;;;;;;;13.30;5.80;;;19.20;99.90;;;;;;5051858;28;20288;-65
2022/07/26 06:13:01;;;;;;;7.50;5.50;;;19.20;99.90;;;;;;5052831;28;20194;-65
2022/07/26 06:15:27;;;;;;;7.80;5.70;;;19.30;99.90;;;;;;5052004;28;20182;-65
2022/07/26 06:17:52;;;;;;;13.03;6.53;;;19.40;99.90;;;;;;5052744;28;20663;-65
2022/07/26 06:20:18;;;;;;;12.23;6.77;;;19.40;99.90;;;;;;5053003;28;20186;-65
2022/07/26 06:22:43;;;;;;;9.60;5.67;;;19.40;99.90;;;;;;5051678;28;20674;-65
2022/07/26 06:25:09;;;;;;;11.87;6.30;;;19.50;99.90;;;;;;5052546;28;20260;-65
2022/07/26 06:27:35;;;;;;;13.30;5.70;;;19.60;99.90;;;;;;5052651;28;20175;-65
2022/07/26 06:30:00;;;;;;;10.87;6.53;;;19.70;99.90;;;;;;5052212;28;20185;-65
2022/07/26 06:32:26;;;;;;;12.43;6.20;;;19.70;99.90;;;;;;5040464;28;20272;-65
2022/07/26 06:34:51;;;;;;;8.20;5.67;;;19.80;99.90;;;;;;5031085;28;20176;-65
2022/07/26 06:37:17;;;;;;;6.47;5.50;;;19.90;99.90;;;;;;5032740;28;20562;-65
2022/07/26 06:39:42;;;;;;;11.90;7.07;;;19.90;99.90;;;;;;5035557;28;20224;-65
2022/07/26 06:42:08;;;;;;;7.90;6.47;;;19.90;99.90;;;;;;5052082;28;20289;-65
2022/07/26 06:44:34;;;;;;;9.03;6.57;;;19.90;99.90;;;;;;5052150;28;20179;-65
2022/07/26 06:46:59;;;;;;;10.27;7.37;;;19.90;99.90;;;;;;5052486;28;20258;-65
2022/07/26 06:49:25;;;;;;;8.50;7.80;;;20.00;99.90;;;;;;5048349;28;20222;-65
2022/07/26 06:51:50;;;;;;;11.00;6.97;;;20.00;99.90;;;;;;5052293;28;20183;-65
2022/07/26 06:54:16;;;;;;;11.03;7.37;;;20.10;99.90;;;;;;5051849;28;20258;-65
2022/07/26 06:56:42;;;;;;;12.57;7.23;;;20.20;99.90;;;;;;5052296;28;20217;-65
2022/07/26 06:59:07;;;;;;;10.67;6.53;;;20.30;99.90;;;;;;5052148;28;20181;-65
2022/07/26 07:01:33;;;;;;;9.93;6.50;;;20.30;99.90;;;;;;5051861;28;20195;-65
2022/07/26 07:03:58;;;;;;;9.43;6.93;;;20.30;99.90;;;;;;5051692;28;20260;-65
2022/07/26 07:06:24;;;;;;;13.47;7.97;;;20.40;99.90;;;;;;5051900;28;20174;-65
2022/07/26 07:08:49;;;;;;;11.23;7.87;;;20.50;99.90;;;;;;5050604;28;20198;-65
2022/07/26 07:11:15;;;;;;;12.23;7.40;;;20.50;99.90;;;;;;5050547;28;20178;-65
2022/07/26 07:13:41;;;;;;;10.27;6.53;;;20.50;99.90;;;;;;5051899;28;20692;-65
2022/07/26 07:16:06;;;;;;;9.53;6.80;;;20.50;99.90;;;;;;5051835;28;20246;-65
2022/07/26 07:18:32;;;;;;;10.73;7.17;;;20.50;99.90;;;;;;5051645;28;20683;-65
2022/07/26 07:20:58;;;;;;;12.27;7.00;;;20.50;99.90;;;;;;5050787;28;20163;-66
2022/07/26 07:23:23;;;;;;;7.67;6.57;;;20.40;99.90;;;;;;5049773;28;20191;-67
2022/07/26 07:25:49;;;;;;;11.77;7.53;;;20.50;99.90;;;;;;5051328;28;20186;-67
2022/07/26 07:28:15;;;;;;;12.13;7.53;;;20.50;99.90;;;;;;5051569;28;20298;-66
2022/07/26 07:30:41;;;;;;;10.03;7.97;;;20.60;99.90;;;;;;5051930;28;20317;-67
2022/07/26 07:33:08;;;;;;;11.93;8.13;;;20.60;99.90;;;;;;5050960;28;20664;-66
2022/07/26 07:35:34;;;;;;;12.27;8.73;;;20.60;99.90;;;;;;5051639;28;20173;-66
2022/07/26 07:37:59;;;;;;;15.03;9.33;;;20.40;99.90;;;;;;5051233;28;20552;-66
2022/07/26 07:40:25;;;;;;;15.27;8.27;;;20.40;99.90;;;;;;5050085;28;20233;-67
2022/07/26 07:42:51;;;;;;;13.27;8.80;;;20.30;99.90;;;;;;5049777;28;20218;-67
2022/07/26 07:45:17;;;;;;;12.27;7.97;;;20.30;99.90;;;;;;5051064;28;20244;-67
2022/07/26 07:47:42;;;;;;;12.57;8.67;;;20.30;99.90;;;;;;5051193;28;20638;-67
2022/07/26 07:50:08;;;;;;;14.63;10.10;;;20.20;99.90;;;;;;5049920;28;20244;-67
2022/07/26 07:52:33;;;;;;;15.90;9.10;;;20.30;99.90;;;;;;5051204;28;20224;-67
2022/07/26 07:54:59;;;;;;;13.00;10.23;;;20.40;99.90;;;;;;5051089;28;20540;-67
2022/07/26 07:57:25;;;;;;;20.47;9.93;;;20.40;99.90;;;;;;5051360;28;20618;-67
2022/07/26 07:59:50;;;;;;;15.10;10.23;;;20.30;99.90;;;;;;5051196;28;20204;-67
2022/07/26 08:02:16;;;;;;;11.70;9.47;;;20.20;99.90;;;;;;5050002;28;20194;-67
2022/07/26 08:04:42;;;;;;;15.23;10.60;;;20.20;99.90;;;;;;5050688;28;20178;-67
2022/07/26 08:07:07;;;;;;;12.10;11.00;;;20.20;99.90;;;;;;5051480;28;20194;-67
2022/07/26 08:09:33;;;;;;;21.97;12.13;;;20.20;99.90;;;;;;5051106;28;20609;-66
2022/07/26 08:11:58;;;;;;;17.20;10.83;;;20.30;99.90;;;;;;5051188;28;20690;-66
2022/07/26 08:14:24;;;;;;;14.53;12.37;;;20.50;99.90;;;;;;5050831;28;20174;-66
2022/07/26 08:16:50;;;;;;;19.77;13.33;;;20.50;99.90;;;;;;5050948;28;20185;-67
2022/07/26 08:19:16;;;;;;;19.63;12.43;;;20.40;99.90;;;;;;5049941;28;20234;-66
2022/07/26 08:21:44;;;;;;;16.53;12.17;;;20.50;99.90;;;;;;5050846;28;20510;-66
2022/07/26 08:24:11;;;;;;;19.43;13.70;;;20.60;99.90;;;;;;5050835;28;20656;-66
2022/07/26 08:26:37;;;;;;;16.63;13.40;;;20.70;99.90;;;;;;5051249;28;20186;-66
2022/07/26 08:29:03;;;;;;;16.53;13.63;;;20.70;99.90;;;;;;5051183;28;20760;-67
2022/07/26 08:31:29;;;;;;;19.50;14.47;;;20.80;99.90;;;;;;5050535;28;20179;-67
2022/07/26 08:33:55;;;;;;;19.73;16.60;;;21.00;99.90;;;;;;5048590;28;20297;-67
2022/07/26 08:36:21;;;;;;;16.83;14.93;;;21.10;99.90;;;;;;5050752;28;20190;-67
2022/07/26 08:38:46;;;;;;;13.67;11.03;;;21.20;99.90;;;;;;5053206;28;20175;-67
2022/07/26 08:41:12;;;;;;;14.40;10.43;;;21.20;99.90;;;;;;5053916;28;20170;-67
2022/07/26 08:43:37;;;;;;;13.10;11.48;;;21.20;99.90;;;;;;5052607;28;20711;-67
2022/07/26 08:46:03;;;;;;;11.63;10.05;;;21.30;99.90;;;;;;5053409;28;20178;-67
2022/07/26 08:48:29;;;;;;;18.50;11.35;;;21.50;99.90;;;;;;5054609;28;20281;-67
2022/07/26 08:50:55;;;;;;;13.27;10.02;;;21.60;99.90;;;;;;5054776;28;20171;-67
2022/07/26 08:53:22;;;;;;;15.63;9.50;;;21.70;99.90;;;;;;5054526;28;20209;-67
2022/07/26 08:55:48;;;;;;;13.48;10.70;;;21.90;99.90;;;;;;5053556;28;20179;-67
2022/07/26 08:58:13;;;;;;;13.52;12.02;;;22.10;99.90;;;;;;5054278;28;20181;-67
2022/07/26 09:00:42;;;;;;;12.88;11.68;;;22.20;99.90;;;;;;5054339;28;20358;-67
2022/07/26 09:03:24;;;;;;;11.98;10.73;;;22.40;99.90;;;;;;5054379;28;20186;-67
2022/07/26 09:05:49;;;;;;;15.73;12.85;;;22.60;99.90;;;;;;5052237;28;20648;-67
2022/07/26 09:08:28;;;;;;;10.90;9.80;;;22.60;99.90;;;;;;5054126;28;20201;-67
2022/07/26 09:10:55;;;;;;;18.42;13.45;;;22.60;99.90;;;;;;5054684;28;20163;-67
2022/07/26 09:13:22;;;;;;;12.07;10.77;;;22.50;99.90;;;;;;5053970;28;20187;-67
2022/07/26 09:15:48;;;;;;;12.43;11.30;;;22.40;99.90;;;;;;5054321;28;20177;-67
2022/07/26 09:18:27;;;;;;;12.63;11.40;;;22.30;99.90;;;;;;5054283;28;20246;-67
2022/07/26 09:20:53;;;;;;;9.90;9.10;;;22.30;99.90;;;;;;5054371;28;20174;-67
2022/07/26 09:23:19;;;;;;;11.68;10.30;;;22.20;99.90;;;;;;5054065;28;20253;-67
2022/07/26 09:25:45;;;;;;;9.05;8.18;;;22.20;99.90;;;;;;5052840;28;20178;-67
2022/07/26 09:28:22;;;;;;;9.40;6.43;;;22.30;99.90;;;;;;5053980;28;20634;-67
2022/07/26 09:30:52;;;;;;;9.20;6.85;;;22.70;99.90;;;;;;5054202;28;20570;-67
2022/07/26 09:33:18;;;;;;;11.15;7.00;;;23.10;99.90;;;;;;5053771;28;20187;-67
2022/07/26 09:36:02;;;;;;;10.10;6.68;;;23.30;99.90;;;;;;5052017;28;20174;-64
2022/07/26 09:38:47;;;;;;;7.13;6.53;;;23.50;99.90;;;;;;5033967;28;20179;-64
2022/07/26 09:41:29;;;;;;;6.43;5.90;;;23.50;99.90;;;;;;5033611;28;20179;-65
2022/07/26 09:43:58;;;;;;;7.35;6.18;;;23.80;99.90;;;;;;5032331;28;20269;-65
2022/07/26 09:46:25;;;;;;;9.00;5.78;;;24.30;99.90;;;;;;5033528;28;20182;-65
2022/07/26 09:48:52;;;;;;;7.68;6.00;;;24.70;99.90;;;;;;5032402;28;20206;-65
2022/07/26 09:51:43;;;;;;;7.15;6.18;;;24.90;99.90;;;;;;5032210;28;20199;-65
2022/07/26 09:54:10;;;;;;;7.28;6.25;;;24.80;99.90;;;;;;5033409;28;20714;-65
2022/07/26 09:56:43;;;;;;;5.72;5.10;;;24.80;99.90;;;;;;5033869;28;20171;-65
2022/07/26 09:59:09;;;;;;;6.85;4.45;;;25.40;99.90;;;;;;5052081;28;20175;-65
2022/07/26 10:01:34;;;;;;;5.45;4.95;;;25.70;99.90;;;;;;5053273;28;20194;-65
2022/07/26 10:04:00;;;;;;;4.65;4.35;;;25.50;99.90;;;;;;5052907;28;20182;-65
2022/07/26 10:06:26;;;;;;;7.10;4.40;;;25.80;99.90;;;;;;5050702;28;20209;-65
2022/07/26 10:08:51;;;;;;;6.35;4.75;;;26.30;99.90;;;;;;5052089;28;20692;-65
2022/07/26 10:11:19;;;;;;;5.45;4.50;;;26.90;99.90;;;;;;5050924;28;20183;-65
2022/07/26 10:13:44;;;;;;;6.38;4.70;;;27.60;99.90;;;;;;5053468;28;20632;-65
2022/07/26 10:16:30;;;;;;;4.28;3.88;;;28.10;99.90;;;;;;5052804;28;20185;-65
2022/07/26 10:18:57;;;;;;;7.00;4.38;;;28.50;99.90;;;;;;5033180;28;20645;-64
2022/07/26 10:21:25;;;;;;;6.45;3.63;;;29.10;99.90;;;;;;5049270;28;20556;-65
2022/07/26 10:23:55;;;;;;;4.45;3.85;;;29.60;99.90;;;;;;5052782;28;20179;-66
2022/07/26 10:26:30;;;;;;;5.32;3.53;;;30.10;99.90;;;;;;5051068;28;20175;-66
2022/07/26 10:29:15;;;;;;;4.82;3.58;;;30.40;99.90;;;;;;5052803;28;20206;-66
2022/07/26 10:31:54;;;;;;;5.85;3.92;;;29.80;99.90;;;;;;5050950;28;20205;-66
2022/07/26 10:34:32;;;;;;;4.60;3.65;;;29.80;99.90;;;;;;5052341;28;20250;-66
2022/07/26 10:37:00;;;;;;;4.78;3.53;;;29.70;99.90;;;;;;5052625;28;20202;-66
2022/07/26 10:39:26;;;;;;;4.28;3.90;;;29.10;99.90;;;;;;5051884;28;20171;-66
2022/07/26 10:42:03;;;;;;;5.18;3.90;;;28.40;99.90;;;;;;5066098;22;20194;-66
2022/07/26 10:44:38;;;;;;;4.35;3.95;;;27.80;99.90;;;;;;5052121;28;20216;-65
2022/07/26 10:47:06;;;;;;;4.35;3.70;;;26.90;99.90;;;;;;5052337;28;20174;-66
2022/07/26 10:49:54;;;;;;;4.10;3.80;;;26.40;99.90;;;;;;5052179;28;20252;-66
2022/07/26 10:52:31;;;;;;;4.45;3.80;;;25.80;99.90;;;;;;5051823;28;20689;-66
2022/07/26 10:54:59;;;;;;;5.22;3.83;;;25.40;99.90;;;;;;5052229;28;20175;-66
2022/07/26 10:57:37;;;;;;;4.65;4.22;;;25.20;99.90;;;;;;5051900;28;20232;-65
2022/07/26 11:00:12;;;;;;;10.57;4.45;;;25.20;99.90;;;;;;5051881;28;20662;-65
2022/07/26 11:02:38;;;;;;;4.53;4.13;;;25.70;99.90;;;;;;5051732;28;20619;-65
2022/07/26 11:05:15;;;;;;;4.35;3.95;;;26.20;99.90;;;;;;5052016;28;20186;-66
2022/07/26 11:08:08;;;;;;;5.93;3.75;;;27.00;99.90;;;;;;5051555;28;20233;-66
2022/07/26 11:10:38;;;;;;;6.35;3.80;;;27.60;99.90;;;;;;5051938;28;20258;-66
2022/07/26 11:13:10;;;;;;;6.25;3.72;;;27.80;99.90;;;;;;5051711;28;20214;-66
2022/07/26 11:15:38;;;;;;;4.15;3.85;;;27.40;99.90;;;;;;5051902;28;20592;-64
2022/07/26 11:18:09;;;;;;;4.70;3.90;;;26.80;99.90;;;;;;5051367;28;20178;-66
2022/07/26 11:20:36;;;;;;;5.00;4.13;;;26.10;99.90;;;;;;5051485;28;20187;-66
2022/07/26 11:23:01;;;;;;;6.93;4.93;;;25.60;99.90;;;;;;5051538;28;20201;-65
2022/07/26 11:25:27;;;;;;;4.45;4.18;;;25.10;99.90;;;;;;5051316;28;20604;-65
2022/07/26 11:28:03;;;;;;;4.85;4.35;;;24.60;99.90;;;;;;5051899;28;20593;-66
2022/07/26 11:30:29;;;;;;;4.53;3.70;;;24.20;99.90;;;;;;5051340;28;20628;-66
2022/07/26 11:32:58;;;;;;;4.63;4.25;;;24.00;99.90;;;;;;5051750;28;20285;-66
2022/07/26 11:35:25;;;;;;;4.95;4.00;;;23.90;99.90;;;;;;5051045;28;20178;-65
2022/07/26 11:37:56;;;;;;;5.88;4.20;;;23.70;99.90;;;;;;5051727;28;20584;-65
2022/07/26 11:40:40;;;;;;;4.60;4.20;;;23.60;99.90;;;;;;5051054;28;20167;-66
2022/07/26 11:43:06;;;;;;;4.00;3.80;;;23.50;99.90;;;;;;5051442;28;20701;-65
2022/07/26 11:45:32;;;;;;;4.03;3.72;;;23.50;99.90;;;;;;5050810;28;20178;-66
2022/07/26 11:47:57;;;;;;;5.03;4.05;;;23.70;99.90;;;;;;5051494;28;20315;-66
2022/07/26 11:50:23;;;;;;;4.00;3.70;;;23.80;99.90;;;;;;5050911;28;20345;-65
2022/07/26 11:52:50;;;;;;;3.80;3.60;;;23.90;99.90;;;;;;5051613;28;20187;-65
2022/07/26 11:55:25;;;;;;;4.20;3.90;;;23.80;99.90;;;;;;5050819;28;20167;-65
2022/07/26 11:57:50;;;;;;;4.43;3.80;;;24.10;99.90;;;;;;5051294;28;20257;-66
2022/07/26 12:00:17;;;;;;;3.70;3.50;;;24.40;99.90;;;;;;5051014;28;20812;-65
2022/07/26 12:02:42;;;;;;;5.25;4.65;;;24.70;99.90;;;;;;5051093;28;20199;-64
2022/07/26 12:05:11;;;;;;;4.63;4.32;;;25.00;99.90;;;;;;5051318;28;20236;-64
2022/07/26 12:07:37;;;;;;;6.57;4.72;;;25.10;99.90;;;;;;5049981;28;20320;-65
2022/07/26 12:10:04;;;;;;;4.32;3.92;;;25.10;99.90;;;;;;5051315;28;20250;-65
2022/07/26 12:12:30;;;;;;;6.53;4.47;;;25.10;99.90;;;;;;5052065;28;20298;-65
2022/07/26 12:15:01;;;;;;;5.18;4.68;;;25.10;99.90;;;;;;5055413;28;20206;-65
2022/07/26 12:17:27;;;;;;;5.88;5.00;;;24.90;99.90;;;;;;5055016;28;20171;-64
2022/07/26 12:19:52;;;;;;;4.93;4.50;;;24.80;99.90;;;;;;5055326;28;20231;-65
2022/07/26 12:22:20;;;;;;;5.13;4.57;;;24.70;99.90;;;;;;5055148;28;20199;-64
2022/07/26 12:24:55;;;;;;;4.35;4.05;;;24.50;99.90;;;;;;5054491;28;20257;-64
2022/07/26 12:27:29;;;;;;;4.82;3.70;;;24.60;99.90;;;;;;5055090;28;20170;-65
2022/07/26 12:29:54;;;;;;;4.88;4.55;;;24.70;99.90;;;;;;5055047;28;20245;-65
2022/07/26 12:32:23;;;;;;;4.00;3.70;;;24.60;99.90;;;;;;5055174;28;20233;-64
2022/07/26 12:34:59;;;;;;;4.43;4.13;;;24.60;99.90;;;;;;5054585;28;20171;-64
2022/07/26 12:37:30;;;;;;;4.03;3.78;;;24.60;99.90;;;;;;5054723;28;20197;-64
2022/07/26 12:40:06;;;;;;;4.28;3.88;;;24.70;99.90;;;;;;5055314;28;20226;-64
2022/07/26 12:42:34;;;;;;;3.92;3.60;;;24.80;99.90;;;;;;5054231;28;20213;-65
2022/07/26 12:45:00;;;;;;;5.38;3.60;;;25.50;99.90;;;;;;5054562;28;20175;-65
2022/07/26 12:47:26;;;;;;;3.65;3.40;;;26.30;99.90;;;;;;5054558;28;20550;-65